createdAt,value
2018-05-14T00:01:36.245Z,37.78
2018-05-14T00:04:03.370Z,36.60
2018-05-14T00:06:30.170Z,32.75
2018-05-14T00:08:56.551Z,36.95
2018-05-14T00:11:22.882Z,32.70
2018-05-14T00:13:49.315Z,35.05
2018-05-14T00:16:15.722Z,35.78
2018-05-14T00:18:42.762Z,31.45
2018-05-14T00:21:09.222Z,29.63
2018-05-14T00:23:35.526Z,28.62
2018-05-14T00:26:01.905Z,32.83
2018-05-14T00:28:28.954Z,32.30
2018-05-14T00:30:56.007Z,28.73
2018-05-14T00:33:22.349Z,26.65
2018-05-14T00:35:48.681Z,29.17
2018-05-14T00:38:15.018Z,27.85
2018-05-14T00:40:41.318Z,26.05
2018-05-14T00:43:08.535Z,26.67
2018-05-14T00:45:34.831Z,26.87
2018-05-14T00:48:01.210Z,21.10
2018-05-14T00:50:27.571Z,14.82
2018-05-14T00:52:53.912Z,17.58
2018-05-14T00:55:20.225Z,17.48
2018-05-14T00:57:46.553Z,12.02
2018-05-14T01:00:12.903Z,15.35
2018-05-14T01:02:39.222Z,11.73
2018-05-14T01:05:05.640Z,11.70
2018-05-14T01:07:32.693Z,8.48
2018-05-14T01:09:59.010Z,10.30
2018-05-14T01:12:26.076Z,12.10
2018-05-14T01:14:52.537Z,10.55
2018-05-14T01:17:18.769Z,10.85
2018-05-14T01:19:45.082Z,8.48
2018-05-14T01:22:11.395Z,7.25
2018-05-14T01:24:37.755Z,8.45
2018-05-14T01:27:04.107Z,5.70
2018-05-14T01:29:30.480Z,6.00
2018-05-14T01:31:56.783Z,6.00
2018-05-14T01:34:23.837Z,5.05
2018-05-14T01:36:50.880Z,6.40
2018-05-14T01:39:17.957Z,5.15
2018-05-14T01:41:44.278Z,5.45
2018-05-14T01:44:10.715Z,7.85
2018-05-14T01:46:37.309Z,6.28
2018-05-14T01:49:03.656Z,9.27
2018-05-14T01:51:30.725Z,6.72
2018-05-14T01:53:57.014Z,13.73
2018-05-14T01:56:23.381Z,20.58
2018-05-14T01:58:49.685Z,14.63
2018-05-14T02:01:16.777Z,13.90
2018-05-14T02:03:43.076Z,14.45
2018-05-14T02:06:10.156Z,12.13
2018-05-14T02:08:36.446Z,13.98
2018-05-14T02:11:03.529Z,11.15
2018-05-14T02:13:29.860Z,9.98
2018-05-14T02:15:56.177Z,10.98
2018-05-14T02:18:22.464Z,9.13
2018-05-14T02:20:49.529Z,10.05
2018-05-14T02:23:16.603Z,11.55
2018-05-14T02:25:42.932Z,8.95
2018-05-14T02:28:09.267Z,16.08
2018-05-14T02:30:35.589Z,12.23
2018-05-14T02:33:01.920Z,13.60
2018-05-14T02:35:28.261Z,15.63
2018-05-14T02:37:54.582Z,17.23
2018-05-14T02:40:20.896Z,16.52
2018-05-14T02:42:47.204Z,14.13
2018-05-14T02:45:14.290Z,25.62
2018-05-14T02:47:40.626Z,15.82
2018-05-14T02:50:06.987Z,12.18
2018-05-14T02:52:33.347Z,10.23
2018-05-14T02:55:00.539Z,14.18
2018-05-14T02:57:26.915Z,14.00
2018-05-14T02:59:54.013Z,10.77
2018-05-14T03:02:20.438Z,9.50
2018-05-14T03:04:46.820Z,11.77
2018-05-14T03:07:13.122Z,17.87
2018-05-14T03:09:39.483Z,16.45
2018-05-14T03:12:05.826Z,19.42
2018-05-14T03:14:32.194Z,12.77
2018-05-14T03:16:58.522Z,16.12
2018-05-14T03:19:24.857Z,16.65
2018-05-14T03:21:51.242Z,21.12
2018-05-14T03:24:18.359Z,12.70
2018-05-14T03:26:45.246Z,11.88
2018-05-14T03:29:11.546Z,11.68
2018-05-14T03:31:37.879Z,14.32
2018-05-14T03:34:04.172Z,10.48
2018-05-14T03:36:30.476Z,10.55
2018-05-14T03:38:56.796Z,10.88
2018-05-14T03:41:23.165Z,10.65
2018-05-14T03:43:49.474Z,13.27
2018-05-14T03:46:15.836Z,12.30
2018-05-14T03:48:42.196Z,14.38
2018-05-14T03:51:09.273Z,17.37
2018-05-14T03:53:35.681Z,14.23
2018-05-14T03:56:02.779Z,12.48
2018-05-14T04:01:53.644Z,9.23
2018-05-14T04:04:39.066Z,17.52
2018-05-14T04:07:05.438Z,12.50
2018-05-14T04:09:31.754Z,13.57
2018-05-14T04:11:58.059Z,11.63
2018-05-14T04:14:24.410Z,12.80
2018-05-14T04:16:50.962Z,10.43
2018-05-14T04:19:18.192Z,8.40
2018-05-14T04:21:44.538Z,9.40
2018-05-14T04:24:10.895Z,9.23
2018-05-14T04:26:37.310Z,8.43
2018-05-14T04:29:04.475Z,8.05
2018-05-14T04:31:30.800Z,9.68
2018-05-14T04:33:57.930Z,10.50
2018-05-14T04:36:25.035Z,8.38
2018-05-14T04:38:51.389Z,8.20
2018-05-14T04:41:17.729Z,8.60
2018-05-14T04:43:44.090Z,9.25
2018-05-14T04:46:11.213Z,8.85
2018-05-14T04:48:37.533Z,9.30
2018-05-14T04:51:05.779Z,9.55
2018-05-14T04:53:32.189Z,10.00
2018-05-14T04:55:58.477Z,9.35
2018-05-14T04:58:24.774Z,8.48
2018-05-14T05:00:51.231Z,8.95
2018-05-14T05:03:17.542Z,8.73
2018-05-14T05:05:43.874Z,9.43
2018-05-14T05:08:10.288Z,7.80
2018-05-14T05:10:36.828Z,7.60
2018-05-14T05:13:03.123Z,6.85
2018-05-14T05:15:29.459Z,7.70
2018-05-14T05:17:55.850Z,6.10
2018-05-14T05:20:22.127Z,6.70
2018-05-14T05:22:48.550Z,6.60
2018-05-14T05:25:14.993Z,8.02
2018-05-14T05:27:41.395Z,7.35
2018-05-14T05:30:08.518Z,9.07
2018-05-14T05:32:34.858Z,9.27
2018-05-14T05:35:01.953Z,9.70
2018-05-14T05:37:28.362Z,10.20
2018-05-14T05:39:54.717Z,9.82
2018-05-14T05:42:21.130Z,9.32
2018-05-14T05:44:47.474Z,9.02
2018-05-14T05:47:13.790Z,11.75
2018-05-14T05:49:40.306Z,13.13
2018-05-14T05:52:07.565Z,11.00
2018-05-14T05:54:34.705Z,10.45
2018-05-14T05:57:01.756Z,11.27
2018-05-14T05:59:28.853Z,13.90
2018-05-14T06:01:55.151Z,13.95
2018-05-14T06:04:21.480Z,10.60
2018-05-14T06:06:47.811Z,12.02
2018-05-14T06:09:14.145Z,13.30
2018-05-14T06:11:40.452Z,11.63
2018-05-14T06:14:07.612Z,11.30
2018-05-14T06:16:33.954Z,9.45
2018-05-14T06:19:00.290Z,10.23
2018-05-14T06:21:26.717Z,13.07
2018-05-14T06:23:57.143Z,10.75
2018-05-14T06:26:23.464Z,10.68
2018-05-14T06:28:49.770Z,9.48
2018-05-14T06:31:16.914Z,9.02
2018-05-14T06:33:44.001Z,11.38
2018-05-14T06:36:10.337Z,11.02
2018-05-14T06:38:36.690Z,10.30
2018-05-14T06:41:03.065Z,8.73
2018-05-14T06:43:29.405Z,10.45
2018-05-14T06:45:55.759Z,12.32
2018-05-14T06:48:22.071Z,9.90
2018-05-14T06:50:48.596Z,11.90
2018-05-14T06:53:14.938Z,13.07
2018-05-14T06:55:41.296Z,14.55
2018-05-14T06:58:07.623Z,23.60
2018-05-14T07:00:34.020Z,20.17
2018-05-14T07:03:00.285Z,15.85
2018-05-14T07:05:26.653Z,18.30
2018-05-14T07:07:53.734Z,11.70
2018-05-14T07:10:20.173Z,12.48
2018-05-14T07:12:46.658Z,14.32
2018-05-14T07:15:13.723Z,14.80
2018-05-14T07:17:40.786Z,11.38
2018-05-14T07:20:07.123Z,12.35
2018-05-14T07:22:33.498Z,12.68
2018-05-14T07:24:59.829Z,14.70
2018-05-14T07:27:26.214Z,13.65
2018-05-14T07:29:52.750Z,12.45
2018-05-14T07:32:19.089Z,13.55
2018-05-14T07:34:45.526Z,14.05
2018-05-14T07:37:12.582Z,13.90
2018-05-14T07:39:38.984Z,14.55
2018-05-14T07:42:05.867Z,13.25
2018-05-14T07:44:32.229Z,13.10
2018-05-14T07:46:58.600Z,12.48
2018-05-14T07:49:24.972Z,14.87
2018-05-14T07:51:51.302Z,17.40
2018-05-14T07:54:17.700Z,14.27
2018-05-14T07:56:44.121Z,14.73
2018-05-14T07:59:10.494Z,17.20
2018-05-14T08:01:36.989Z,17.42
2018-05-14T08:04:03.428Z,14.48
2018-05-14T08:06:30.077Z,16.12
2018-05-14T08:08:56.398Z,15.93
2018-05-14T08:11:22.755Z,20.88
2018-05-14T08:13:49.253Z,16.65
2018-05-14T08:16:15.472Z,16.10
2018-05-14T08:18:41.826Z,19.17
2018-05-14T08:21:08.149Z,15.32
2018-05-14T08:23:35.275Z,18.00
2018-05-14T08:26:01.639Z,21.30
2018-05-14T08:28:28.035Z,20.90
2018-05-14T08:30:54.338Z,18.00
2018-05-14T08:33:21.436Z,21.75
2018-05-14T08:35:47.793Z,17.08
2018-05-14T08:38:14.141Z,17.20
2018-05-14T08:40:41.240Z,21.67
2018-05-14T08:43:07.565Z,17.73
2018-05-14T08:45:33.880Z,19.85
2018-05-14T08:48:00.361Z,20.50
2018-05-14T08:50:26.663Z,18.75
2018-05-14T08:52:52.998Z,19.48
2018-05-14T08:55:19.456Z,23.35
2018-05-14T08:57:45.743Z,27.37
2018-05-14T09:00:12.591Z,20.62
2018-05-14T09:02:38.921Z,23.23
2018-05-14T09:05:05.258Z,28.00
2018-05-14T09:07:31.696Z,23.50
2018-05-14T09:09:58.064Z,27.55
2018-05-14T09:12:25.283Z,24.00
2018-05-14T09:14:51.591Z,27.30
2018-05-14T09:17:17.937Z,28.98
2018-05-14T09:19:44.349Z,28.42
2018-05-14T09:22:10.693Z,28.20
2018-05-14T09:24:37.047Z,27.02
2018-05-14T09:27:04.137Z,24.85
2018-05-14T09:29:30.591Z,29.42
2018-05-14T09:31:56.956Z,25.95
2018-05-14T09:34:24.027Z,26.98
2018-05-14T09:36:50.383Z,26.12
2018-05-14T09:39:16.926Z,27.80
2018-05-14T09:41:43.543Z,29.40
2018-05-14T09:44:09.977Z,24.33
2018-05-14T09:46:36.331Z,25.15
2018-05-14T09:49:02.716Z,25.52
2018-05-14T09:51:29.799Z,25.92
2018-05-14T09:53:56.137Z,26.52
2018-05-14T09:56:22.551Z,29.10
2018-05-14T09:58:48.894Z,30.30
2018-05-14T10:01:15.230Z,27.83
2018-05-14T10:03:42.574Z,29.83
2018-05-14T10:06:08.915Z,29.27
2018-05-14T10:08:35.298Z,33.83
2018-05-14T10:11:01.640Z,32.60
2018-05-14T10:13:28.046Z,32.55
2018-05-14T10:15:55.120Z,34.97
2018-05-14T10:18:21.415Z,37.38
2018-05-14T10:20:47.920Z,39.85
2018-05-14T10:23:14.274Z,38.63
2018-05-14T10:25:41.369Z,37.38
2018-05-14T10:28:07.756Z,36.67
2018-05-14T10:30:34.179Z,35.40
2018-05-14T10:33:00.601Z,38.95
2018-05-14T10:35:27.099Z,32.03
2018-05-14T10:37:53.455Z,32.28
2018-05-14T10:40:19.801Z,34.97
2018-05-14T10:42:46.195Z,36.22
2018-05-14T10:45:12.528Z,41.37
2018-05-14T10:47:38.886Z,36.95
2018-05-14T10:50:05.207Z,37.80
2018-05-14T10:52:31.561Z,34.55
2018-05-14T10:54:58.638Z,34.17
2018-05-14T10:57:25.014Z,38.15
2018-05-14T10:59:51.365Z,42.50
2018-05-14T11:02:17.693Z,38.97
2018-05-14T11:04:44.070Z,36.00
2018-05-14T11:07:10.414Z,32.83
2018-05-14T11:09:36.822Z,37.20
2018-05-14T11:12:03.161Z,36.10
2018-05-14T11:14:29.607Z,32.00
2018-05-14T11:16:55.927Z,33.83
2018-05-14T11:19:22.355Z,35.33
2018-05-14T11:21:48.710Z,27.70
2018-05-14T11:24:15.798Z,26.43
2018-05-14T11:26:42.874Z,27.53
2018-05-14T11:29:09.225Z,30.67
2018-05-14T11:31:36.324Z,28.70
2018-05-14T11:34:03.442Z,32.60
2018-05-14T11:36:29.733Z,25.53
2018-05-14T11:38:56.073Z,28.43
2018-05-14T11:41:22.418Z,31.30
2018-05-14T11:43:48.758Z,28.07
2018-05-14T11:46:15.071Z,28.90
2018-05-14T11:48:41.391Z,29.53
2018-05-14T11:51:07.750Z,26.80
2018-05-14T11:53:34.080Z,27.60
2018-05-14T11:56:00.413Z,28.40
2018-05-14T11:58:27.072Z,28.27
2018-05-14T12:00:53.551Z,29.40
2018-05-14T12:03:19.912Z,30.07
2018-05-14T12:05:46.244Z,31.80
2018-05-14T12:08:12.553Z,31.97
2018-05-14T12:10:38.918Z,32.10
2018-05-14T12:13:05.266Z,30.57
2018-05-14T12:15:32.444Z,33.03
2018-05-14T12:17:58.762Z,32.37
2018-05-14T12:20:25.111Z,29.20
2018-05-14T12:22:52.122Z,29.90
2018-05-14T12:25:19.198Z,29.60
2018-05-14T12:27:45.482Z,30.80
2018-05-14T12:30:12.579Z,31.70
2018-05-14T12:32:38.896Z,31.87
2018-05-14T12:35:05.300Z,30.40
2018-05-14T12:37:32.480Z,31.93
2018-05-14T12:39:58.804Z,30.63
2018-05-14T12:42:25.168Z,29.97
2018-05-14T12:44:51.544Z,30.10
2018-05-14T12:47:18.663Z,30.10
2018-05-14T12:49:44.972Z,29.87
2018-05-14T12:52:11.319Z,30.60
2018-05-14T12:54:37.626Z,29.40
2018-05-14T12:57:04.003Z,30.63
2018-05-14T12:59:31.105Z,27.60
2018-05-14T13:01:57.439Z,30.40
2018-05-14T13:04:23.798Z,31.37
2018-05-14T13:06:50.123Z,29.73
2018-05-14T13:09:16.520Z,30.00
2018-05-14T13:11:42.994Z,31.67
2018-05-14T13:14:10.130Z,31.50
2018-05-14T13:16:36.589Z,30.10
2018-05-14T13:19:03.717Z,30.90
2018-05-14T13:21:37.063Z,32.20
2018-05-14T13:24:03.457Z,30.43
2018-05-14T13:26:30.613Z,33.10
2018-05-14T13:28:57.753Z,33.57
2018-05-14T13:31:24.870Z,32.70
2018-05-14T13:33:51.190Z,35.17
2018-05-14T13:36:17.553Z,32.50
2018-05-14T13:38:44.717Z,33.27
2018-05-14T13:41:11.853Z,31.93
2018-05-14T13:43:38.941Z,31.73
2018-05-14T13:46:05.344Z,31.40
2018-05-14T13:48:32.484Z,32.80
2018-05-14T13:50:58.934Z,30.00
2018-05-14T13:53:25.982Z,32.73
2018-05-14T13:55:52.388Z,31.57
2018-05-14T13:58:18.713Z,31.23
2018-05-14T14:00:45.084Z,34.10
2018-05-14T14:03:11.442Z,32.07
2018-05-14T14:05:38.327Z,32.83
2018-05-14T14:08:05.408Z,31.90
2018-05-14T14:10:31.739Z,31.47
2018-05-14T14:12:58.066Z,30.57
2018-05-14T14:15:24.530Z,29.77
2018-05-14T14:17:50.859Z,29.40
2018-05-14T14:20:17.245Z,30.70
2018-05-14T14:22:43.660Z,28.90
2018-05-14T14:25:10.800Z,29.10
2018-05-14T14:27:37.186Z,26.70
2018-05-14T14:30:03.619Z,25.00
2018-05-14T14:32:29.957Z,28.77
2018-05-14T14:34:56.281Z,28.37
2018-05-14T14:37:22.606Z,30.40
2018-05-14T14:39:49.028Z,28.57
2018-05-14T14:42:15.483Z,28.63
2018-05-14T14:44:42.013Z,28.03
2018-05-14T14:47:08.663Z,30.77
2018-05-14T14:49:35.030Z,30.03
2018-05-14T14:52:01.538Z,30.70
2018-05-14T14:54:27.947Z,33.17
2018-05-14T14:56:54.262Z,38.00
2018-05-14T14:59:20.701Z,20.10
2018-05-14T15:01:47.324Z,22.00
2018-05-14T15:04:13.699Z,24.83
2018-05-14T15:06:40.053Z,26.40
2018-05-14T15:09:07.168Z,33.50
2018-05-14T15:11:33.530Z,31.33
2018-05-14T15:14:00.719Z,31.33
2018-05-14T15:16:27.113Z,34.83
2018-05-14T15:18:54.374Z,31.20
2018-05-14T15:21:20.726Z,36.57
2018-05-14T15:23:47.056Z,40.63
2018-05-14T15:26:13.462Z,40.70
2018-05-14T15:28:39.837Z,42.80
2018-05-14T15:31:06.202Z,41.17
2018-05-14T15:33:32.587Z,42.03
2018-05-14T15:35:58.976Z,44.70
2018-05-14T15:38:26.095Z,58.23
2018-05-14T15:40:53.298Z,61.60
2018-05-14T15:43:19.631Z,64.90
2018-05-14T15:45:46.508Z,61.47
2018-05-14T15:48:13.784Z,63.23
2018-05-14T15:50:40.927Z,60.47
2018-05-14T15:53:08.163Z,59.40
2018-05-14T15:55:34.798Z,55.07
2018-05-14T15:58:01.216Z,54.43
2018-05-14T16:00:27.600Z,45.07
2018-05-14T16:02:54.755Z,44.07
2018-05-14T16:05:21.221Z,48.87
2018-05-14T16:07:48.147Z,47.37
2018-05-14T16:10:14.569Z,52.47
2018-05-14T16:12:40.951Z,49.40
2018-05-14T16:15:08.499Z,49.27
2018-05-14T16:17:34.906Z,50.20
2018-05-14T16:20:02.068Z,51.20
2018-05-14T16:22:28.465Z,50.90
2018-05-14T16:24:54.862Z,52.40
2018-05-14T16:27:22.063Z,51.27
2018-05-14T16:29:48.559Z,48.67
2018-05-14T16:32:15.708Z,51.77
2018-05-14T16:34:42.510Z,49.30
2018-05-14T16:37:09.097Z,44.90
2018-05-14T16:39:39.888Z,46.83
2018-05-14T16:42:07.027Z,43.20
2018-05-14T16:44:33.435Z,39.87
2018-05-14T16:46:59.850Z,44.90
2018-05-14T16:49:26.401Z,42.47
2018-05-14T16:51:53.307Z,42.77
2018-05-14T16:54:19.983Z,44.07
2018-05-14T16:56:46.482Z,40.17
2018-05-14T16:59:13.066Z,44.00
2018-05-14T17:01:39.507Z,38.30
2018-05-14T17:04:06.002Z,43.47
2018-05-14T17:06:33.178Z,44.43
2018-05-14T17:08:59.656Z,44.90
2018-05-14T17:11:26.086Z,46.47
2018-05-14T17:13:52.508Z,48.30
2018-05-14T17:16:19.081Z,49.87
2018-05-14T17:18:45.851Z,58.03
2018-05-14T17:21:12.399Z,61.47
2018-05-14T17:23:38.936Z,60.70
2018-05-14T17:26:05.340Z,59.57
2018-05-14T17:28:31.903Z,66.20
2018-05-14T17:30:58.508Z,53.83
2018-05-14T17:33:25.055Z,49.38
2018-05-14T17:35:51.522Z,49.80
2018-05-14T17:38:17.918Z,55.05
2018-05-14T17:40:44.401Z,60.65
2018-05-14T17:43:11.643Z,65.37
2018-05-14T17:45:38.918Z,73.43
2018-05-14T17:48:05.350Z,81.32
2018-05-14T17:50:31.917Z,85.35
2018-05-14T17:52:58.608Z,87.93
2018-05-14T17:55:24.988Z,86.25
2018-05-14T17:57:51.550Z,90.03
2018-05-14T18:00:18.072Z,102.67
2018-05-14T18:02:45.526Z,101.93
2018-05-14T18:05:12.163Z,72.90
2018-05-14T18:07:39.260Z,79.45
2018-05-14T18:10:05.749Z,64.90
2018-05-14T18:12:32.263Z,59.73
2018-05-14T18:14:59.148Z,65.40
2018-05-14T18:17:25.928Z,52.97
2018-05-14T18:19:58.561Z,56.63
2018-05-14T18:22:25.067Z,55.00
2018-05-14T18:24:51.663Z,52.90
2018-05-14T18:27:25.195Z,54.88
2018-05-14T18:29:53.677Z,63.47
2018-05-14T18:32:20.263Z,58.95
2018-05-14T18:34:46.974Z,55.92
2018-05-14T18:37:13.567Z,61.13
2018-05-14T18:39:40.134Z,62.15
2018-05-14T18:42:06.650Z,60.20
2018-05-14T18:44:33.238Z,56.00
2018-05-14T18:46:59.923Z,69.20
2018-05-14T18:49:26.506Z,71.55
2018-05-14T18:51:53.900Z,61.90
2018-05-14T18:54:20.523Z,55.60
2018-05-14T18:56:47.143Z,47.50
2018-05-14T18:59:13.727Z,54.17
2018-05-14T19:01:40.270Z,48.97
2018-05-14T19:04:06.898Z,48.85
2018-05-14T19:06:37.839Z,47.45
2018-05-14T19:09:04.838Z,49.45
2018-05-14T19:11:37.612Z,49.80
2018-05-14T19:14:04.518Z,56.47
2018-05-14T19:16:41.309Z,50.20
2018-05-14T19:19:08.047Z,55.17
2018-05-14T19:21:34.642Z,53.92
2018-05-14T19:24:01.199Z,50.63
2018-05-14T19:26:27.758Z,51.25
2018-05-14T19:29:00.257Z,59.20
2018-05-14T19:31:26.778Z,61.30
2018-05-14T19:33:59.298Z,68.60
2018-05-14T19:36:25.705Z,59.50
2018-05-14T19:38:52.051Z,54.60
2018-05-14T19:41:18.454Z,61.10
2018-05-14T19:43:45.062Z,55.45
2018-05-14T19:46:11.554Z,60.10
2018-05-14T19:48:38.244Z,59.40
2018-05-14T19:51:06.601Z,58.33
2018-05-14T19:53:33.080Z,62.88
2018-05-14T19:55:59.446Z,56.20
2018-05-14T19:58:25.925Z,56.80
2018-05-14T20:00:52.302Z,58.13
2018-05-14T20:03:18.798Z,68.12
2018-05-14T20:05:45.223Z,63.00
2018-05-14T20:08:12.358Z,64.68
2018-05-14T20:10:39.544Z,74.35
2018-05-14T20:13:05.947Z,78.97
2018-05-14T20:15:33.164Z,91.97
2018-05-14T20:18:03.597Z,86.60
2018-05-14T20:20:30.034Z,83.57
2018-05-14T20:22:56.431Z,76.07
2018-05-14T20:25:22.822Z,84.53
2018-05-14T20:27:49.969Z,82.70
2018-05-14T20:30:17.178Z,85.50
2018-05-14T20:32:43.587Z,95.70
2018-05-14T20:35:10.014Z,92.03
2018-05-14T20:37:36.418Z,96.47
2018-05-14T20:40:03.618Z,95.57
2018-05-14T20:42:29.997Z,96.25
2018-05-14T20:44:57.103Z,97.15
2018-05-14T20:47:23.507Z,89.65
2018-05-14T20:49:49.951Z,94.97
2018-05-14T20:52:16.402Z,92.28
2018-05-14T20:54:42.785Z,87.20
2018-05-14T20:57:09.142Z,87.80
2018-05-14T20:59:35.521Z,86.30
2018-05-14T21:02:02.000Z,85.82
2018-05-14T21:04:28.402Z,83.37
2018-05-14T21:06:54.869Z,71.37
2018-05-14T21:09:21.262Z,72.20
2018-05-14T21:11:47.722Z,78.62
2018-05-14T21:14:14.259Z,69.07
2018-05-14T21:16:40.902Z,69.32
2018-05-14T21:19:07.247Z,69.15
2018-05-14T21:21:33.648Z,81.28
2018-05-14T21:24:00.063Z,79.28
2018-05-14T21:26:26.478Z,87.07
2018-05-14T21:28:53.589Z,89.07
2018-05-14T21:31:20.075Z,89.43
2018-05-14T21:33:47.298Z,88.68
2018-05-14T21:36:13.679Z,95.72
2018-05-14T21:38:40.036Z,90.18
2018-05-14T21:41:06.450Z,75.18
2018-05-14T21:43:32.774Z,90.90
2018-05-14T21:45:59.103Z,91.15
2018-05-14T21:48:25.436Z,91.50
2018-05-14T21:50:51.818Z,85.28
2018-05-14T21:53:18.599Z,87.28
2018-05-14T21:55:45.166Z,86.30
2018-05-14T21:58:11.675Z,104.38
2018-05-14T22:00:38.058Z,77.47
2018-05-14T22:03:04.428Z,69.85
2018-05-14T22:05:30.889Z,71.78
2018-05-14T22:07:57.240Z,66.45
2018-05-14T22:10:23.592Z,63.60
2018-05-14T22:12:50.724Z,63.15
2018-05-14T22:15:17.113Z,66.87
2018-05-14T22:17:43.444Z,75.65
2018-05-14T22:20:09.836Z,85.90
2018-05-14T22:22:36.219Z,75.43
2018-05-14T22:25:02.567Z,71.78
2018-05-14T22:27:38.546Z,68.22
2018-05-14T22:30:09.022Z,78.80
2018-05-14T22:32:36.520Z,69.30
2018-05-14T22:35:07.771Z,79.80
2018-05-14T22:37:34.137Z,71.93
2018-05-14T22:40:00.568Z,79.62
2018-05-14T22:42:26.959Z,67.72
2018-05-14T22:44:53.323Z,66.45
2018-05-14T22:47:19.777Z,71.32
2018-05-14T22:49:46.132Z,67.47
2018-05-14T22:52:12.502Z,75.15
2018-05-14T22:54:38.846Z,54.75
2018-05-14T22:57:05.186Z,44.20
2018-05-14T22:59:32.328Z,31.77
2018-05-14T23:01:58.682Z,34.57
2018-05-14T23:04:25.777Z,36.58
2018-05-14T23:06:52.899Z,29.58
2018-05-14T23:09:19.267Z,30.15
2018-05-14T23:11:45.602Z,27.58
2018-05-14T23:14:11.976Z,29.45
2018-05-14T23:16:38.349Z,29.25
2018-05-14T23:19:05.455Z,34.10
2018-05-14T23:21:31.845Z,31.35
2018-05-14T23:23:58.223Z,29.87
2018-05-14T23:26:25.680Z,36.88
2018-05-14T23:28:52.032Z,37.78
2018-05-14T23:31:21.269Z,43.08
2018-05-14T23:33:47.645Z,43.60
2018-05-14T23:36:13.993Z,46.88
2018-05-14T23:38:40.323Z,43.42
2018-05-14T23:41:11.907Z,40.28
2018-05-14T23:43:38.617Z,44.50
2018-05-14T23:46:05.770Z,45.05
2018-05-14T23:48:32.918Z,42.20
2018-05-14T23:51:00.006Z,44.22
2018-05-14T23:53:26.408Z,46.30
2018-05-14T23:55:52.764Z,45.33
2018-05-14T23:58:19.163Z,46.83
